Time;durP1;ratioP1;P1;durP2;ratioP2;P2;SDS_P1;SDS_P2;PMS_P1;PMS_P2;Temp;Humidity;BMP_temperature;BMP_pressure;BME280_temperature;BME280_humidity;BME280_pressure;Samples;Min_cycle;Max_cycle;Signal;HPM_P1;HPM_P2
2021/03/11 00:01:14;;;;;;;3.13;1.83;;;17.90;54.80;;;;;;10456956;28;20108;-56
2021/03/11 00:06:15;;;;;;;2.85;1.80;;;17.90;54.80;;;;;;10468447;28;20067;-56
2021/03/11 00:11:15;;;;;;;2.83;1.83;;;17.80;54.60;;;;;;10486310;28;20045;-56
2021/03/11 00:16:16;;;;;;;2.85;1.52;;;17.90;54.60;;;;;;10456828;28;20069;-56
2021/03/11 00:21:17;;;;;;;2.97;1.73;;;17.90;54.60;;;;;;10485828;28;20067;-56
2021/03/11 00:26:17;;;;;;;3.10;2.00;;;17.90;54.60;;;;;;10456444;28;20443;-56
2021/03/11 00:31:18;;;;;;;2.28;1.73;;;17.90;54.50;;;;;;10456464;28;20118;-56
2021/03/11 00:36:19;;;;;;;2.75;1.60;;;17.90;54.50;;;;;;10456022;28;20076;-56
2021/03/11 00:41:19;;;;;;;2.20;1.50;;;17.90;54.50;;;;;;10463126;28;20499;-56
2021/03/11 00:46:20;;;;;;;2.15;1.65;;;17.90;54.50;;;;;;10495876;28;20121;-56
2021/03/11 00:51:21;;;;;;;2.95;1.77;;;17.90;54.50;;;;;;10484953;28;20082;-56
2021/03/11 00:56:21;;;;;;;1.90;1.33;;;17.90;54.50;;;;;;10465202;28;20067;-56
2021/03/11 01:01:22;;;;;;;3.03;1.40;;;17.90;54.50;;;;;;10484781;28;20029;-56
2021/03/11 01:06:23;;;;;;;2.95;1.70;;;17.90;54.50;;;;;;10455382;28;20113;-56
2021/03/11 01:11:24;;;;;;;3.10;1.75;;;17.90;54.50;;;;;;10458715;28;20186;-56
2021/03/11 01:16:24;;;;;;;2.85;1.90;;;17.90;54.40;;;;;;10490932;28;20067;-56
2021/03/11 01:21:25;;;;;;;2.25;1.50;;;17.90;54.40;;;;;;10466299;28;20086;-56
2021/03/11 01:26:26;;;;;;;3.10;2.08;;;18.00;54.40;;;;;;10472782;28;20064;-56
2021/03/11 01:31:29;;;;;;;2.40;1.73;;;17.90;54.40;;;;;;10469924;28;20112;-56
2021/03/11 01:36:30;;;;;;;2.63;1.60;;;17.90;54.40;;;;;;10496955;28;20488;-56
2021/03/11 01:41:31;;;;;;;2.72;1.83;;;17.90;54.30;;;;;;10491347;28;20108;-56
2021/03/11 01:46:31;;;;;;;2.92;1.58;;;17.90;54.30;;;;;;10472402;28;20479;-56
2021/03/11 01:51:33;;;;;;;1.83;1.35;;;17.90;54.30;;;;;;10491180;28;20116;-56
2021/03/11 01:56:35;;;;;;;2.03;1.27;;;17.90;54.30;;;;;;10461893;28;20526;-56
2021/03/11 02:01:36;;;;;;;2.85;1.70;;;17.90;54.40;;;;;;10462651;28;20087;-56
2021/03/11 02:06:37;;;;;;;2.70;1.60;;;17.90;54.40;;;;;;10503530;28;20186;-56
2021/03/11 02:11:44;;;;;;;2.17;1.30;;;17.90;54.30;;;;;;10489788;28;20086;-56
2021/03/11 02:16:53;;;;;;;2.70;1.60;;;17.90;54.40;;;;;;10460211;28;20417;-55
2021/03/11 02:22:12;;;;;;;2.30;1.38;;;17.90;54.30;;;;;;10461138;28;20057;-56
2021/03/11 02:27:22;;;;;;;3.07;1.70;;;17.90;54.30;;;;;;10461124;28;20039;-56
2021/03/11 02:32:25;;;;;;;1.65;1.20;;;17.90;54.30;;;;;;10476010;28;20037;-56
2021/03/11 02:37:40;;;;;;;3.15;1.50;;;17.90;54.30;;;;;;10500557;28;20020;-56
2021/03/11 02:42:42;;;;;;;2.33;1.83;;;17.90;54.40;;;;;;10479694;28;20158;-56
2021/03/11 02:47:43;;;;;;;2.67;1.30;;;17.90;54.40;;;;;;10470067;28;20040;-56
2021/03/11 02:52:45;;;;;;;2.10;1.38;;;17.90;54.40;;;;;;10478961;28;20079;-56
2021/03/11 02:57:46;;;;;;;2.67;1.40;;;17.90;54.40;;;;;;10458683;28;20032;-56
2021/03/11 03:02:48;;;;;;;2.25;1.15;;;17.90;54.40;;;;;;10468657;28;20107;-57
2021/03/11 03:07:50;;;;;;;1.30;1.08;;;17.90;54.30;;;;;;10483105;28;20040;-56
2021/03/11 03:12:54;;;;;;;2.08;1.25;;;18.00;54.40;;;;;;10471530;28;20127;-56
2021/03/11 03:17:56;;;;;;;1.95;1.25;;;18.00;54.40;;;;;;10500458;28;20039;-56
2021/03/11 03:23:02;;;;;;;3.45;1.40;;;18.00;54.40;;;;;;10476841;28;20041;-56
2021/03/11 03:28:04;;;;;;;1.33;1.02;;;18.00;54.40;;;;;;10457250;28;20538;-56
2021/03/11 03:33:05;;;;;;;1.98;1.30;;;17.90;54.40;;;;;;10478865;28;20036;-56
2021/03/11 03:38:07;;;;;;;1.77;0.88;;;17.90;54.30;;;;;;10473058;28;20043;-56
2021/03/11 03:43:24;;;;;;;2.08;1.35;;;17.90;54.40;;;;;;10478799;28;20093;-56
2021/03/11 03:48:36;;;;;;;2.03;1.20;;;18.00;54.40;;;;;;10468110;28;20044;-56
2021/03/11 03:53:47;;;;;;;1.23;0.95;;;17.90;54.40;;;;;;10472752;28;20039;-56
2021/03/11 03:58:49;;;;;;;1.90;1.27;;;17.90;54.40;;;;;;10496360;28;20029;-56
2021/03/11 04:03:51;;;;;;;1.67;0.90;;;18.00;54.50;;;;;;10468942;28;20065;-56
2021/03/11 04:08:52;;;;;;;1.80;1.02;;;18.00;54.40;;;;;;10455905;28;20051;-55
2021/03/11 04:13:54;;;;;;;1.52;1.05;;;17.90;54.50;;;;;;10455322;28;20505;-57
2021/03/11 04:19:00;;;;;;;1.63;0.90;;;17.90;54.40;;;;;;10438782;28;20041;-56
2021/03/11 04:24:02;;;;;;;1.20;0.93;;;18.00;54.50;;;;;;10468381;28;20028;-57
2021/03/11 04:29:04;;;;;;;1.48;0.90;;;17.90;54.50;;;;;;10457221;28;20085;-56
2021/03/11 04:34:06;;;;;;;2.08;1.20;;;17.90;54.50;;;;;;10483820;28;20111;-56
2021/03/11 04:39:07;;;;;;;1.13;0.85;;;18.00;54.50;;;;;;10489044;28;20021;-56
2021/03/11 04:44:08;;;;;;;1.00;0.90;;;18.00;54.40;;;;;;10465840;28;20359;-56
2021/03/11 04:49:10;;;;;;;1.95;1.15;;;18.00;54.40;;;;;;10455951;28;20114;-56
2021/03/11 04:54:13;;;;;;;1.83;0.98;;;18.00;54.50;;;;;;10473953;28;20042;-56
2021/03/11 04:59:17;;;;;;;1.08;0.80;;;18.00;54.40;;;;;;10493907;28;20039;-56
2021/03/11 05:04:19;;;;;;;2.13;1.00;;;18.00;54.40;;;;;;10470779;28;20090;-56
2021/03/11 05:09:20;;;;;;;1.75;0.93;;;18.00;54.50;;;;;;10454296;28;20067;-56
2021/03/11 05:14:20;;;;;;;2.50;1.10;;;18.00;54.50;;;;;;10466900;28;20132;-56
2021/03/11 05:19:21;;;;;;;2.08;0.93;;;18.00;54.50;;;;;;10484649;28;20020;-56
2021/03/11 05:24:21;;;;;;;1.42;0.98;;;18.00;54.50;;;;;;10475575;28;20087;-56
2021/03/11 05:29:22;;;;;;;1.00;0.70;;;18.00;54.50;;;;;;10456587;28;20066;-55
2021/03/11 05:34:23;;;;;;;1.48;0.80;;;18.00;54.50;;;;;;10471695;28;20056;-56
2021/03/11 05:39:23;;;;;;;1.05;0.90;;;18.00;54.50;;;;;;10464567;28;20064;-57
2021/03/11 05:44:24;;;;;;;1.05;0.85;;;18.00;54.50;;;;;;10459018;28;20062;-56
2021/03/11 05:49:25;;;;;;;2.30;0.95;;;18.00;54.50;;;;;;10494865;28;20028;-56
2021/03/11 05:54:28;;;;;;;1.17;0.70;;;18.00;54.50;;;;;;10483091;28;20124;-56
2021/03/11 05:59:29;;;;;;;1.60;0.80;;;18.00;54.50;;;;;;10460469;28;20039;-56
2021/03/11 06:04:35;;;;;;;1.35;0.80;;;18.00;54.50;;;;;;10477406;28;20037;-56
2021/03/11 06:09:37;;;;;;;1.10;0.80;;;18.00;54.40;;;;;;10489285;28;20056;-56
2021/03/11 06:14:40;;;;;;;2.80;1.15;;;18.00;54.40;;;;;;10487134;28;20079;-56
2021/03/11 06:19:40;;;;;;;2.30;0.80;;;18.00;54.70;;;;;;10456817;28;20025;-56
2021/03/11 06:24:44;;;;;;;3.53;1.60;;;18.00;55.10;;;;;;10460397;28;20025;-58
2021/03/11 06:29:45;;;;;;;7.03;1.40;;;18.00;55.70;;;;;;10464113;28;20044;-56
2021/03/11 06:34:45;;;;;;;6.88;1.17;;;18.00;56.50;;;;;;10460900;28;20037;-57
2021/03/11 06:39:46;;;;;;;8.32;1.80;;;18.10;57.60;;;;;;10467914;28;20104;-55
2021/03/11 06:44:47;;;;;;;4.13;1.38;;;18.00;57.30;;;;;;10463259;28;20393;-55
2021/03/11 06:50:02;;;;;;;9.63;1.38;;;18.00;58.10;;;;;;10458437;28;20060;-56
2021/03/11 06:55:10;;;;;;;13.90;1.63;;;18.00;57.30;;;;;;10459775;28;20493;-56
2021/03/11 07:00:17;;;;;;;16.05;2.10;;;18.00;57.50;;;;;;10474741;28;20043;-57
2021/03/11 07:05:20;;;;;;;12.93;2.50;;;17.90;57.80;;;;;;10500914;28;20120;-56
2021/03/11 07:10:26;;;;;;;11.70;2.08;;;17.90;57.00;;;;;;10471109;28;20041;-56
2021/03/11 07:15:31;;;;;;;11.35;2.05;;;17.90;56.80;;;;;;10457831;28;20041;-56
2021/03/11 07:20:34;;;;;;;7.07;1.80;;;17.90;56.80;;;;;;10471755;28;20358;-56
2021/03/11 07:25:40;;;;;;;7.85;2.33;;;17.90;56.70;;;;;;10461412;28;20037;-56
2021/03/11 07:30:56;;;;;;;7.20;1.98;;;17.90;56.60;;;;;;10479258;28;20025;-56
2021/03/11 07:36:04;;;;;;;7.72;1.88;;;17.90;56.50;;;;;;10496033;28;20036;-56
2021/03/11 07:41:08;;;;;;;9.70;2.63;;;17.80;56.30;;;;;;10495417;28;20134;-56
2021/03/11 07:46:09;;;;;;;6.20;1.80;;;17.80;56.30;;;;;;10463604;28;20532;-55
2021/03/11 07:51:11;;;;;;;6.60;2.05;;;17.80;56.30;;;;;;10464359;28;20135;-56
2021/03/11 07:56:12;;;;;;;3.25;1.40;;;17.90;56.30;;;;;;10453978;28;20036;-55
2021/03/11 08:01:13;;;;;;;10.20;1.75;;;17.90;56.30;;;;;;10451882;28;20079;-55
2021/03/11 08:06:26;;;;;;;5.18;1.58;;;17.90;56.30;;;;;;10465543;28;20064;-56
2021/03/11 08:11:36;;;;;;;3.20;1.20;;;17.80;56.40;;;;;;10451652;28;20055;-55
2021/03/11 08:16:37;;;;;;;10.77;1.92;;;17.80;56.50;;;;;;10449648;28;20117;-56
2021/03/11 08:21:43;;;;;;;7.50;1.48;;;17.80;56.40;;;;;;10447819;28;20171;-56
2021/03/11 08:26:45;;;;;;;4.18;1.52;;;17.80;56.40;;;;;;10449463;28;20068;-56
2021/03/11 08:31:50;;;;;;;8.65;1.85;;;17.80;56.40;;;;;;10450811;28;20025;-56
2021/03/11 08:36:52;;;;;;;4.20;1.50;;;17.80;56.40;;;;;;10448882;28;20089;-56
2021/03/11 08:41:52;;;;;;;4.30;1.20;;;17.80;56.40;;;;;;10449122;28;20072;-55
2021/03/11 08:46:53;;;;;;;5.53;1.67;;;17.80;56.40;;;;;;10447498;28;20116;-55
2021/03/11 08:51:54;;;;;;;2.97;1.10;;;17.80;56.50;;;;;;10448521;28;20139;-54
2021/03/11 08:56:55;;;;;;;6.97;1.65;;;17.80;56.70;;;;;;10448529;28;20162;-55
2021/03/11 09:01:55;;;;;;;3.17;1.05;;;17.70;56.60;;;;;;10448545;28;20120;-56
2021/03/11 09:07:00;;;;;;;3.38;1.45;;;17.80;56.70;;;;;;10447069;28;20022;-55
2021/03/11 09:12:10;;;;;;;1.70;1.00;;;17.80;56.70;;;;;;10446693;28;20139;-56
2021/03/11 09:17:15;;;;;;;2.70;1.17;;;17.80;56.60;;;;;;10467682;28;20057;-55
2021/03/11 09:22:35;;;;;;;2.03;1.02;;;17.80;56.50;;;;;;10446783;28;20478;-56
2021/03/11 09:27:57;;;;;;;3.00;0.95;;;17.80;56.50;;;;;;10460258;28;20037;-56
2021/03/11 09:33:08;;;;;;;2.88;0.95;;;17.80;56.40;;;;;;10483391;28;20033;-55
2021/03/11 09:38:14;;;;;;;4.47;1.42;;;17.80;56.50;;;;;;10490654;28;20142;-56
2021/03/11 09:43:29;;;;;;;3.25;1.13;;;17.80;56.60;;;;;;10455578;28;20040;-56
2021/03/11 09:48:33;;;;;;;2.13;1.23;;;17.80;56.60;;;;;;10455653;28;20025;-55
2021/03/11 09:53:38;;;;;;;3.47;1.63;;;17.80;56.50;;;;;;10454032;28;20044;-55
2021/03/11 09:58:51;;;;;;;3.30;1.10;;;17.80;56.50;;;;;;10454401;28;20405;-56
2021/03/11 10:03:52;;;;;;;3.10;0.93;;;17.80;56.50;;;;;;10450746;28;20116;-56
2021/03/11 10:08:58;;;;;;;2.28;1.17;;;17.80;56.60;;;;;;10454541;28;20401;-54
2021/03/11 10:14:02;;;;;;;3.63;1.73;;;17.70;56.50;;;;;;10452618;28;20064;-56
2021/03/11 10:19:17;;;;;;;4.88;1.75;;;17.80;56.60;;;;;;10453914;28;20109;-56
2021/03/11 10:24:50;;;;;;;5.32;1.35;;;17.80;56.40;;;;;;10454021;28;20036;-55
2021/03/11 10:30:05;;;;;;;3.28;1.05;;;17.80;56.50;;;;;;10455864;28;20043;-56
2021/03/11 10:35:09;;;;;;;2.95;1.10;;;17.80;56.40;;;;;;10453684;28;20033;-55
2021/03/11 10:40:18;;;;;;;2.00;0.88;;;17.80;56.40;;;;;;10453856;28;20814;-55
2021/03/11 10:45:26;;;;;;;1.60;0.80;;;17.80;56.40;;;;;;10453240;28;20041;-56
2021/03/11 10:50:29;;;;;;;2.85;1.08;;;17.80;56.40;;;;;;10452620;28;20044;-55
2021/03/11 10:55:42;;;;;;;2.38;1.17;;;17.80;56.40;;;;;;10452120;28;20064;-56
2021/03/11 11:00:42;;;;;;;3.38;1.25;;;17.80;56.40;;;;;;10452809;28;20029;-56
2021/03/11 11:05:43;;;;;;;3.60;1.20;;;17.80;56.50;;;;;;10452422;28;20112;-56
2021/03/11 11:10:43;;;;;;;2.97;1.25;;;17.80;56.50;;;;;;10452405;28;20555;-55
2021/03/11 11:15:44;;;;;;;3.45;1.40;;;17.80;56.40;;;;;;10451864;28;20059;-55
2021/03/11 11:20:45;;;;;;;2.78;1.10;;;17.80;56.40;;;;;;10452106;28;20103;-55
2021/03/11 11:25:45;;;;;;;1.65;1.00;;;17.80;56.50;;;;;;10451442;28;20041;-56
2021/03/11 11:30:46;;;;;;;4.50;1.33;;;17.80;56.50;;;;;;10453092;28;20115;-55
2021/03/11 11:35:51;;;;;;;2.80;1.58;;;17.80;56.40;;;;;;10452798;28;20044;-56
2021/03/11 11:40:52;;;;;;;2.05;1.00;;;17.80;56.40;;;;;;10463271;28;20025;-56
2021/03/11 11:45:52;;;;;;;4.55;1.35;;;17.80;56.50;;;;;;10451352;28;20037;-56
2021/03/11 11:50:53;;;;;;;2.55;1.25;;;17.80;56.40;;;;;;10450579;28;20565;-56
2021/03/11 11:55:54;;;;;;;3.67;1.60;;;17.80;56.40;;;;;;10448756;28;20112;-56
2021/03/11 12:00:55;;;;;;;4.50;1.63;;;17.80;56.50;;;;;;10449983;28;20029;-56
2021/03/11 12:05:55;;;;;;;3.97;1.50;;;17.80;56.40;;;;;;10449458;28;20024;-56
2021/03/11 12:10:56;;;;;;;3.63;1.30;;;17.80;56.40;;;;;;10447948;28;20029;-56
2021/03/11 12:15:57;;;;;;;6.28;1.73;;;17.80;56.40;;;;;;10449497;28;20806;-56
2021/03/11 12:20:58;;;;;;;3.45;1.20;;;17.80;56.50;;;;;;10450063;28;20020;-56
2021/03/11 12:25:59;;;;;;;5.65;1.85;;;17.80;56.60;;;;;;10459478;28;20039;-55
2021/03/11 12:31:04;;;;;;;4.75;1.70;;;17.80;56.50;;;;;;10447074;28;20382;-55
2021/03/11 12:36:08;;;;;;;4.15;1.52;;;17.80;56.50;;;;;;10448588;28;20029;-56
2021/03/11 12:41:09;;;;;;;4.72;1.50;;;17.80;56.30;;;;;;10448784;28;20370;-55
2021/03/11 12:46:10;;;;;;;7.18;1.77;;;17.80;56.30;;;;;;10447575;28;20511;-56
2021/03/11 12:51:10;;;;;;;6.72;1.60;;;17.80;56.30;;;;;;10448506;28;20037;-56
2021/03/11 12:56:11;;;;;;;3.97;1.65;;;17.80;56.20;;;;;;10448494;28;20037;-56
2021/03/11 13:01:12;;;;;;;6.18;2.05;;;17.80;56.10;;;;;;10448571;28;20095;-56
2021/03/11 13:06:13;;;;;;;4.90;1.50;;;17.80;56.10;;;;;;10449967;28;20029;-56
2021/03/11 13:11:13;;;;;;;3.42;1.30;;;17.80;56.20;;;;;;10456977;28;20043;-57
2021/03/11 13:16:14;;;;;;;3.42;1.50;;;17.70;56.20;;;;;;10456630;28;20129;-56
2021/03/11 13:21:14;;;;;;;3.35;1.52;;;17.70;56.30;;;;;;10455527;28;20033;-56
2021/03/11 13:26:16;;;;;;;4.68;1.63;;;17.70;56.30;;;;;;10456403;28;20107;-55
2021/03/11 13:31:17;;;;;;;5.00;1.75;;;17.70;56.20;;;;;;10456550;28;20056;-56
2021/03/11 13:36:18;;;;;;;2.85;1.38;;;17.70;56.20;;;;;;10479891;28;20111;-56
2021/03/11 13:41:18;;;;;;;4.65;1.85;;;17.70;56.20;;;;;;10462079;28;20067;-56
2021/03/11 13:46:19;;;;;;;2.42;1.35;;;17.70;56.30;;;;;;10455289;28;20107;-56
2021/03/11 13:51:20;;;;;;;5.43;1.42;;;17.70;56.30;;;;;;10455467;28;20112;-56
2021/03/11 13:56:22;;;;;;;3.42;1.38;;;17.70;56.30;;;;;;10455360;28;20474;-56
2021/03/11 14:01:22;;;;;;;2.85;1.20;;;17.70;56.20;;;;;;10455360;28;20037;-56
2021/03/11 14:06:25;;;;;;;4.03;1.40;;;17.70;56.30;;;;;;10455125;28;20029;-56
2021/03/11 14:11:25;;;;;;;3.03;1.33;;;17.70;56.20;;;;;;10454847;28;20063;-56
2021/03/11 14:16:26;;;;;;;4.03;1.45;;;17.70;56.30;;;;;;10454168;28;20124;-56
2021/03/11 14:21:27;;;;;;;2.80;1.30;;;17.70;56.20;;;;;;10454664;28;20684;-56
2021/03/11 14:26:29;;;;;;;3.65;1.30;;;17.70;56.10;;;;;;10454425;28;20111;-56
2021/03/11 14:31:30;;;;;;;5.53;1.67;;;17.80;56.10;;;;;;10454105;28;20074;-56
2021/03/11 14:36:30;;;;;;;3.60;1.10;;;17.80;56.00;;;;;;10453768;28;20029;-56
2021/03/11 14:41:33;;;;;;;4.68;1.83;;;17.80;56.00;;;;;;10456864;28;20108;-56
2021/03/11 14:46:34;;;;;;;3.22;1.05;;;17.80;56.20;;;;;;10456132;28;20249;-56
2021/03/11 14:51:36;;;;;;;2.88;1.13;;;17.80;56.30;;;;;;10453559;28;20041;-55
2021/03/11 14:56:36;;;;;;;5.00;1.70;;;17.80;56.40;;;;;;10452918;28;20171;-56
2021/03/11 15:01:37;;;;;;;2.97;1.17;;;17.70;56.40;;;;;;10453114;28;20536;-54
2021/03/11 15:06:38;;;;;;;3.53;1.10;;;17.70;56.50;;;;;;10452647;28;20112;-54
2021/03/11 15:11:39;;;;;;;4.28;2.10;;;17.70;56.60;;;;;;10450351;28;20044;-56
2021/03/11 15:16:42;;;;;;;2.60;0.85;;;17.70;56.70;;;;;;10451756;28;20178;-56
2021/03/11 15:21:42;;;;;;;3.30;1.30;;;17.60;56.70;;;;;;10451794;28;20053;-56
2021/03/11 15:26:43;;;;;;;3.00;1.23;;;17.60;56.80;;;;;;10452012;28;20144;-57
2021/03/11 15:31:46;;;;;;;2.78;0.95;;;17.60;56.90;;;;;;10450670;28;20107;-55
2021/03/11 15:36:47;;;;;;;3.10;1.20;;;17.60;56.80;;;;;;10451484;28;20025;-56
2021/03/11 15:41:47;;;;;;;3.13;1.20;;;17.60;56.80;;;;;;10457072;28;20492;-55
2021/03/11 15:46:50;;;;;;;6.38;2.00;;;17.60;56.70;;;;;;10449812;28;20468;-55
2021/03/11 15:51:51;;;;;;;4.55;1.00;;;17.70;56.60;;;;;;10450736;28;20037;-56
2021/03/11 15:56:51;;;;;;;4.72;1.15;;;17.70;56.50;;;;;;10450856;28;20849;-55
2021/03/11 16:01:52;;;;;;;3.10;0.95;;;17.70;56.40;;;;;;10449712;28;20567;-56
2021/03/11 16:06:53;;;;;;;3.75;1.20;;;17.70;56.40;;;;;;10449961;28;20044;-56
2021/03/11 16:11:53;;;;;;;3.30;0.90;;;17.70;56.40;;;;;;10448686;28;20505;-55
2021/03/11 16:16:54;;;;;;;2.55;1.13;;;17.70;56.40;;;;;;10456176;28;20127;-55
2021/03/11 16:21:55;;;;;;;3.90;1.10;;;17.70;56.50;;;;;;10464572;28;20055;-55
2021/03/11 16:26:56;;;;;;;3.17;1.38;;;17.70;56.60;;;;;;10459855;28;20115;-56
2021/03/11 16:31:57;;;;;;;2.17;1.00;;;17.70;56.60;;;;;;10464563;28;20481;-57
2021/03/11 16:36:59;;;;;;;2.97;0.93;;;17.70;56.50;;;;;;10455520;28;20040;-57
2021/03/11 16:41:59;;;;;;;4.25;1.10;;;17.70;56.40;;;;;;10472010;28;20024;-57
2021/03/11 16:47:00;;;;;;;2.03;0.98;;;17.70;56.30;;;;;;10458022;28;20127;-56
2021/03/11 16:52:01;;;;;;;2.85;1.30;;;17.70;56.30;;;;;;10496573;28;20028;-57
2021/03/11 16:57:02;;;;;;;4.22;1.70;;;17.70;55.80;;;;;;10488294;28;20111;-56
2021/03/11 17:02:03;;;;;;;17.60;7.82;;;17.70;55.20;;;;;;10469279;28;20127;-56
2021/03/11 17:07:03;;;;;;;13.40;7.68;;;17.70;55.00;;;;;;10491135;28;20043;-57
2021/03/11 17:12:05;;;;;;;16.25;7.85;;;17.80;54.90;;;;;;10455139;28;20029;-55
2021/03/11 17:17:06;;;;;;;19.13;7.70;;;17.80;56.10;;;;;;10454524;28;20045;-57
2021/03/11 17:22:06;;;;;;;16.05;6.88;;;17.90;57.50;;;;;;10474309;28;20025;-56
2021/03/11 17:27:07;;;;;;;19.27;7.22;;;18.00;57.80;;;;;;10454581;28;20033;-56
2021/03/11 17:32:09;;;;;;;10.48;6.50;;;18.00;57.80;;;;;;10473918;28;20036;-56
2021/03/11 17:37:09;;;;;;;18.38;6.07;;;18.00;58.30;;;;;;10482544;28;20782;-56
2021/03/11 17:42:10;;;;;;;23.13;6.88;;;18.00;57.70;;;;;;10488749;28;20111;-56
2021/03/11 17:47:11;;;;;;;19.40;6.38;;;18.00;57.30;;;;;;10458607;28;20400;-57
2021/03/11 17:52:11;;;;;;;20.23;6.07;;;18.00;57.10;;;;;;10492370;28;20037;-55
2021/03/11 17:57:12;;;;;;;16.90;4.65;;;18.00;56.90;;;;;;10462711;28;20117;-54
2021/03/11 18:02:13;;;;;;;19.23;5.43;;;17.90;56.90;;;;;;10465764;28;20027;-56
2021/03/11 18:07:13;;;;;;;14.02;4.57;;;17.90;57.10;;;;;;10494888;28;20068;-55
2021/03/11 18:12:14;;;;;;;18.52;4.50;;;17.80;57.10;;;;;;10469296;28;20114;-55
2021/03/11 18:17:15;;;;;;;15.63;4.68;;;17.80;57.30;;;;;;10460410;28;20122;-55
2021/03/11 18:22:15;;;;;;;15.45;4.60;;;17.80;57.50;;;;;;10460029;28;20050;-55
2021/03/11 18:27:16;;;;;;;9.00;3.30;;;17.70;57.80;;;;;;10458254;28;20033;-55
2021/03/11 18:32:17;;;;;;;12.50;3.60;;;17.70;58.00;;;;;;10459561;28;20028;-55
2021/03/11 18:37:19;;;;;;;9.57;3.42;;;17.70;58.20;;;;;;10474332;28;20040;-56
2021/03/11 18:42:20;;;;;;;13.80;3.28;;;17.60;58.30;;;;;;10478935;28;20100;-55
2021/03/11 18:47:21;;;;;;;14.88;3.15;;;17.70;58.10;;;;;;10481462;28;20036;-55
2021/03/11 18:52:23;;;;;;;14.00;3.15;;;17.70;58.70;;;;;;10458162;28;20029;-54
2021/03/11 18:57:24;;;;;;;18.40;3.60;;;17.70;59.40;;;;;;10465752;28;20121;-55
2021/03/11 19:02:25;;;;;;;9.00;3.38;;;17.70;59.40;;;;;;10485075;28;20017;-55
2021/03/11 19:07:25;;;;;;;9.73;2.88;;;17.70;59.40;;;;;;10486092;28;20086;-54
2021/03/11 19:12:26;;;;;;;12.10;3.15;;;17.70;59.70;;;;;;10478237;28;20064;-56
2021/03/11 19:17:27;;;;;;;24.95;4.60;;;17.70;59.60;;;;;;10460429;28;20037;-55
2021/03/11 19:22:29;;;;;;;8.32;3.20;;;17.70;59.50;;;;;;10446371;28;20028;-54
2021/03/11 19:27:29;;;;;;;10.73;3.63;;;17.70;59.10;;;;;;10430622;28;20151;-54
2021/03/11 19:32:30;;;;;;;11.85;3.63;;;17.70;59.20;;;;;;10430649;28;20587;-53
2021/03/11 19:37:31;;;;;;;6.95;3.65;;;17.70;59.20;;;;;;10440140;28;20033;-54
2021/03/11 19:42:32;;;;;;;13.10;2.60;;;17.70;59.10;;;;;;10457371;28;20485;-54
2021/03/11 19:47:33;;;;;;;9.60;3.10;;;17.70;59.20;;;;;;10456404;28;20025;-55
2021/03/11 19:52:34;;;;;;;12.07;3.05;;;17.70;59.30;;;;;;10438435;28;20485;-54
2021/03/11 19:57:35;;;;;;;7.22;3.42;;;17.70;59.30;;;;;;10456556;28;20031;-55
2021/03/11 20:02:37;;;;;;;10.57;2.78;;;17.70;59.20;;;;;;10425660;28;20059;-53
2021/03/11 20:07:40;;;;;;;8.52;3.20;;;17.70;59.30;;;;;;10447687;28;20033;-54
2021/03/11 20:12:42;;;;;;;8.18;3.22;;;17.70;59.30;;;;;;10446980;28;20052;-52
2021/03/11 20:17:43;;;;;;;6.07;1.88;;;17.70;59.30;;;;;;10450922;28;20043;-55
2021/03/11 20:22:44;;;;;;;7.93;2.47;;;17.70;59.30;;;;;;10426670;28;20513;-54
2021/03/11 20:27:45;;;;;;;6.32;2.13;;;17.70;59.30;;;;;;10443199;28;20500;-55
2021/03/11 20:32:47;;;;;;;5.80;2.38;;;17.70;59.40;;;;;;10432519;28;20028;-54
2021/03/11 20:37:48;;;;;;;5.80;2.30;;;17.70;59.50;;;;;;10451563;28;20033;-55
2021/03/11 20:42:49;;;;;;;10.00;2.33;;;17.70;59.50;;;;;;10459624;28;20048;-54
2021/03/11 20:47:52;;;;;;;6.82;2.25;;;17.70;59.50;;;;;;10458361;28;20044;-55
2021/03/11 20:52:58;;;;;;;6.78;2.30;;;17.70;59.40;;;;;;10455491;28;20040;-55
2021/03/11 20:57:59;;;;;;;7.53;2.58;;;17.70;59.30;;;;;;10465772;28;20032;-53
2021/03/11 21:03:01;;;;;;;4.40;2.10;;;17.70;59.10;;;;;;10495456;28;20024;-53
2021/03/11 21:08:05;;;;;;;7.13;2.45;;;17.70;59.10;;;;;;10480195;28;20033;-55
2021/03/11 21:13:06;;;;;;;5.13;1.95;;;17.70;59.00;;;;;;10473298;28;20397;-55
2021/03/11 21:18:07;;;;;;;6.03;2.10;;;17.70;58.80;;;;;;10480452;28;20116;-54
2021/03/11 21:23:07;;;;;;;4.72;2.05;;;17.70;58.80;;;;;;10455168;28;20099;-54
2021/03/11 21:28:09;;;;;;;3.45;1.23;;;17.70;58.70;;;;;;10466468;28;20033;-54
2021/03/11 21:33:09;;;;;;;4.60;2.05;;;17.70;58.50;;;;;;10483931;28;20087;-55
2021/03/11 21:38:10;;;;;;;7.65;1.80;;;17.80;58.50;;;;;;10473273;28;20117;-55
2021/03/11 21:43:12;;;;;;;4.20;1.77;;;17.80;58.40;;;;;;10488798;28;20028;-55
2021/03/11 21:48:12;;;;;;;4.75;2.17;;;17.80;58.40;;;;;;10489454;28;20033;-55
2021/03/11 21:53:14;;;;;;;5.32;1.98;;;17.80;58.30;;;;;;10463023;28;20365;-54
2021/03/11 21:58:15;;;;;;;5.00;1.50;;;17.80;58.30;;;;;;10490338;28;20504;-55
2021/03/11 22:03:15;;;;;;;2.70;1.30;;;17.80;58.20;;;;;;10465262;28;20039;-55
2021/03/11 22:08:16;;;;;;;3.92;1.30;;;17.80;58.20;;;;;;10492688;28;20111;-53
2021/03/11 22:13:17;;;;;;;3.50;1.50;;;17.80;58.10;;;;;;10492715;28;20052;-55
2021/03/11 22:18:18;;;;;;;5.22;2.03;;;17.80;58.10;;;;;;10461309;28;20029;-53
2021/03/11 22:23:19;;;;;;;2.85;1.40;;;17.80;58.00;;;;;;10468263;28;20032;-53
2021/03/11 22:28:19;;;;;;;2.80;1.70;;;17.80;58.00;;;;;;10502661;28;20028;-54
2021/03/11 22:33:20;;;;;;;3.13;1.10;;;17.80;58.00;;;;;;10506893;28;20060;-54
2021/03/11 22:38:20;;;;;;;5.07;1.38;;;17.80;58.00;;;;;;10472257;28;20067;-54
2021/03/11 22:43:22;;;;;;;3.03;1.27;;;17.80;57.90;;;;;;10488965;28;20029;-54
2021/03/11 22:48:22;;;;;;;4.68;1.73;;;17.80;57.90;;;;;;10501335;28;20077;-55
2021/03/11 22:53:23;;;;;;;3.55;1.27;;;17.80;57.80;;;;;;10490264;28;20029;-55
2021/03/11 22:58:24;;;;;;;3.67;1.40;;;17.80;57.80;;;;;;10462677;28;20029;-52
2021/03/11 23:03:24;;;;;;;4.78;1.13;;;17.80;57.80;;;;;;10494101;28;20117;-55
2021/03/11 23:08:26;;;;;;;4.05;1.00;;;17.80;57.70;;;;;;10501191;28;20025;-54
2021/03/11 23:13:28;;;;;;;3.63;1.48;;;17.80;57.70;;;;;;10494361;28;20056;-54
2021/03/11 23:18:30;;;;;;;2.67;1.35;;;17.80;57.60;;;;;;10487475;28;20037;-55
2021/03/11 23:23:35;;;;;;;1.77;0.95;;;17.80;57.70;;;;;;10492636;28;20052;-55
2021/03/11 23:28:36;;;;;;;1.63;0.73;;;17.80;57.60;;;;;;10458719;28;20067;-55
2021/03/11 23:33:37;;;;;;;2.47;0.90;;;17.80;57.90;;;;;;10457221;28;20485;-54
2021/03/11 23:38:38;;;;;;;2.58;1.00;;;17.80;57.60;;;;;;10471185;28;20151;-54
2021/03/11 23:43:39;;;;;;;2.75;1.38;;;17.80;57.60;;;;;;10463295;28;20033;-55
2021/03/11 23:48:40;;;;;;;2.28;0.82;;;17.80;57.60;;;;;;10457194;28;20033;-53
2021/03/11 23:53:41;;;;;;;5.03;1.00;;;17.80;57.60;;;;;;10461551;28;20039;-54
2021/03/11 23:58:42;;;;;;;2.58;0.80;;;17.80;57.60;;;;;;10486541;28;20028;-54
